Time,TemperatureF,DewpointF,PressureIn,WindDirection,WindDirectionDegrees,WindSpeedMPH,WindSpeedGustMPH,Humidity,HourlyPrecipIn,Conditions,Clouds,dailyrainin,SoftwareType,DateUTC
2013-11-10 00:02:00,41.6,38.3,30.01,NNE,14,0.0,0.0,88,0.00,,,0.00,WeatherCatV1.23B16,2013-11-10 08:02:00,
2013-11-10 00:07:00,41.5,38.2,30.01,NNE,15,0.0,0.0,88,0.00,,,0.00,WeatherCatV1.23B16,2013-11-10 08:07:00,
2013-11-10 00:12:00,41.4,38.1,30.01,NNE,15,0.0,0.0,88,0.00,,,0.00,WeatherCatV1.23B16,2013-11-10 08:12:00,
2013-11-10 00:17:00,41.5,38.5,30.00,NNE,14,0.0,0.0,89,0.00,,,0.00,WeatherCatV1.23B16,2013-11-10 08:17:00,
2013-11-10 00:22:00,41.5,38.5,30.00,NNE,14,0.0,0.0,89,0.00,,,0.00,WeatherCatV1.23B16,2013-11-10 08:22:00,
2013-11-10 00:27:00,41.5,38.8,30.00,NNE,15,0.0,0.0,90,0.00,,,0.00,WeatherCatV1.23B16,2013-11-10 08:27:00,
2013-11-10 00:32:00,41.4,38.4,30.01,NNE,15,0.0,0.0,89,0.00,,,0.00,WeatherCatV1.23B16,2013-11-10 08:32:00,
2013-11-10 00:37:00,41.3,38.3,30.00,NNE,15,0.0,0.0,89,0.00,,,0.00,WeatherCatV1.23B16,2013-11-10 08:37:00,
2013-11-10 00:46:00,41.1,38.1,30.01,NNE,14,0.0,0.0,89,0.00,,,0.00,WeatherCatV1.23B16,2013-11-10 08:46:00,
2013-11-10 00:57:00,40.8,37.8,30.00,NNE,15,0.0,0.0,89,0.00,,,0.00,WeatherCatV1.23B16,2013-11-10 08:57:00,
2013-11-10 01:02:00,40.7,37.7,30.00,NNE,14,0.0,0.0,89,0.00,,,0.00,WeatherCatV1.23B16,2013-11-10 09:02:00,
2013-11-10 01:07:00,40.5,37.5,30.00,NNE,15,0.0,0.0,89,0.00,,,0.00,WeatherCatV1.23B16,2013-11-10 09:07:00,
2013-11-10 01:12:00,40.4,37.4,30.00,NNE,14,0.0,0.0,89,0.00,,,0.00,WeatherCatV1.23B16,2013-11-10 09:12:00,
2013-11-10 01:17:00,40.2,37.2,30.00,NNE,14,0.0,0.0,89,0.00,,,0.00,WeatherCatV1.23B16,2013-11-10 09:17:00,
2013-11-10 01:25:00,40.0,37.0,30.00,NNE,14,0.0,0.0,89,0.00,,,0.00,WeatherCatV1.23B16,2013-11-10 09:25:00,
2013-11-10 01:30:00,39.9,36.9,30.00,NNE,15,0.0,0.0,89,0.00,,,0.00,WeatherCatV1.23B16,2013-11-10 09:30:00,
2013-11-10 01:35:00,40.0,37.3,30.00,NNE,15,0.0,0.0,90,0.00,,,0.00,WeatherCatV1.23B16,2013-11-10 09:35:00,
2013-11-10 01:40:00,40.1,37.4,30.00,NNE,15,0.0,0.0,90,0.00,,,0.00,WeatherCatV1.23B16,2013-11-10 09:40:00,
2013-11-10 01:45:00,40.1,37.7,30.00,NNE,15,0.0,0.0,91,0.00,,,0.00,WeatherCatV1.23B16,2013-11-10 09:45:00,
2013-11-10 01:50:00,40.0,37.6,30.00,NNE,15,0.0,0.0,91,0.00,,,0.00,WeatherCatV1.23B16,2013-11-10 09:50:00,
2013-11-10 01:55:00,39.9,37.2,30.00,NNE,15,0.0,0.0,90,0.00,,,0.00,WeatherCatV1.23B16,2013-11-10 09:55:00,
2013-11-10 02:00:00,39.8,37.4,30.00,NNE,14,0.0,0.0,91,0.00,,,0.00,WeatherCatV1.23B16,2013-11-10 10:00:00,
2013-11-10 02:05:00,39.6,36.9,30.00,NNE,14,0.0,0.0,90,0.00,,,0.00,WeatherCatV1.23B16,2013-11-10 10:05:00,
2013-11-10 02:10:00,39.5,37.1,30.00,NNE,15,0.0,0.0,91,0.00,,,0.00,WeatherCatV1.23B16,2013-11-10 10:10:00,
2013-11-10 02:15:00,39.4,37.0,30.00,NNE,15,0.0,0.0,91,0.00,,,0.00,WeatherCatV1.23B16,2013-11-10 10:15:00,
2013-11-10 02:20:00,39.3,36.9,30.00,NNE,15,0.0,0.0,91,0.00,,,0.00,WeatherCatV1.23B16,2013-11-10 10:20:00,
2013-11-10 02:25:00,39.2,36.8,30.00,NNE,15,0.0,0.0,91,0.00,,,0.00,WeatherCatV1.23B16,2013-11-10 10:25:00,
2013-11-10 02:30:00,39.1,36.7,30.01,NNE,15,0.0,0.0,91,0.00,,,0.00,WeatherCatV1.23B16,2013-11-10 10:30:00,
2013-11-10 02:35:00,38.9,36.5,30.01,NNE,14,0.0,0.0,91,0.00,,,0.00,WeatherCatV1.23B16,2013-11-10 10:35:00,
2013-11-10 02:36:00,38.9,36.5,30.01,NNE,15,0.0,0.0,91,0.00,,,0.00,WeatherCatV1.23B16,2013-11-10 10:36:00,
2013-11-10 02:41:00,38.8,36.4,30.01,NNE,14,0.0,0.0,91,0.00,,,0.00,WeatherCatV1.23B16,2013-11-10 10:41:00,
2013-11-10 02:46:00,38.6,35.9,30.01,NNE,14,0.0,0.0,90,0.00,,,0.00,WeatherCatV1.23B16,2013-11-10 10:46:00,
2013-11-10 02:51:00,38.3,35.6,30.01,NNE,15,0.0,0.0,90,0.00,,,0.00,WeatherCatV1.23B16,2013-11-10 10:51:00,
2013-11-10 02:56:00,38.2,35.5,30.01,NNE,15,0.0,0.0,90,0.00,,,0.00,WeatherCatV1.23B16,2013-11-10 10:56:00,
2013-11-10 03:01:00,38.0,35.3,30.01,NNE,15,0.0,0.0,90,0.00,,,0.00,WeatherCatV1.23B16,2013-11-10 11:01:00,
2013-11-10 03:06:00,37.8,35.1,30.01,NNE,14,0.0,0.0,90,0.00,,,0.00,WeatherCatV1.23B16,2013-11-10 11:06:00,
2013-11-10 03:11:00,37.7,35.0,30.01,NNE,15,0.0,0.0,90,0.00,,,0.00,WeatherCatV1.23B16,2013-11-10 11:11:00,
2013-11-10 03:16:00,37.6,35.2,30.00,NNE,14,0.0,0.0,91,0.00,,,0.00,WeatherCatV1.23B16,2013-11-10 11:16:00,
2013-11-10 03:21:00,37.5,35.1,30.01,NNE,15,0.0,0.0,91,0.00,,,0.00,WeatherCatV1.23B16,2013-11-10 11:21:00,
2013-11-10 03:26:00,37.3,34.6,30.01,NNE,14,0.0,0.0,90,0.00,,,0.00,WeatherCatV1.23B16,2013-11-10 11:26:00,
2013-11-10 03:31:00,37.2,34.5,30.01,NNE,15,0.0,0.0,90,0.00,,,0.00,WeatherCatV1.23B16,2013-11-10 11:31:00,
2013-11-10 03:36:00,37.1,34.4,30.01,NNE,15,0.0,0.0,90,0.00,,,0.00,WeatherCatV1.23B16,2013-11-10 11:36:00,
2013-11-10 03:41:00,36.9,34.5,30.01,NNE,14,0.0,0.0,91,0.00,,,0.00,WeatherCatV1.23B16,2013-11-10 11:41:00,
2013-11-10 03:46:00,36.8,34.4,30.01,NNE,15,0.0,0.0,91,0.00,,,0.00,WeatherCatV1.23B16,2013-11-10 11:46:00,
2013-11-10 03:53:00,36.6,34.2,30.01,NNE,15,0.0,0.0,91,0.00,,,0.00,WeatherCatV1.23B16,2013-11-10 11:53:00,
2013-11-10 03:58:00,36.6,34.2,30.01,NNE,15,0.0,0.0,91,0.00,,,0.00,WeatherCatV1.23B16,2013-11-10 11:58:00,
2013-11-10 04:03:00,36.5,34.1,30.01,NNE,15,0.0,0.0,91,0.00,,,0.00,WeatherCatV1.23B16,2013-11-10 12:03:00,
2013-11-10 04:08:00,36.4,34.0,30.02,NNE,14,0.0,0.0,91,0.00,,,0.00,WeatherCatV1.23B16,2013-11-10 12:08:00,
2013-11-10 04:13:00,36.3,33.9,30.02,NNE,15,0.0,0.0,91,0.00,,,0.00,WeatherCatV1.23B16,2013-11-10 12:13:00,
2013-11-10 04:18:00,36.2,33.8,30.02,NNE,15,0.0,0.0,91,0.00,,,0.00,WeatherCatV1.23B16,2013-11-10 12:18:00,
2013-11-10 04:23:00,36.2,33.8,30.02,NNE,14,0.0,0.0,91,0.00,,,0.00,WeatherCatV1.23B16,2013-11-10 12:23:00,
2013-11-10 04:28:00,36.1,33.7,30.02,NNE,15,0.0,0.0,91,0.00,,,0.00,WeatherCatV1.23B16,2013-11-10 12:28:00,
2013-11-10 04:33:00,36.1,33.7,30.02,NNE,15,0.0,0.0,91,0.00,,,0.00,WeatherCatV1.23B16,2013-11-10 12:33:00,
2013-11-10 04:38:00,36.0,33.6,30.03,NNE,15,0.0,0.0,91,0.00,,,0.00,WeatherCatV1.23B16,2013-11-10 12:38:00,
2013-11-10 04:43:00,36.0,33.6,30.02,NNE,15,0.0,0.0,91,0.00,,,0.00,WeatherCatV1.23B16,2013-11-10 12:43:00,
2013-11-10 04:48:00,36.1,34.0,30.02,NNE,15,0.0,0.0,92,0.00,,,0.00,WeatherCatV1.23B16,2013-11-10 12:48:00,
2013-11-10 04:53:00,36.1,34.0,30.02,NNE,14,0.0,0.0,92,0.00,,,0.00,WeatherCatV1.23B16,2013-11-10 12:53:00,
2013-11-10 04:58:00,36.1,34.0,30.03,NNE,14,0.0,0.0,92,0.00,,,0.00,WeatherCatV1.23B16,2013-11-10 12:58:00,
2013-11-10 05:03:00,36.0,33.9,30.03,NNE,15,0.0,0.0,92,0.00,,,0.00,WeatherCatV1.23B16,2013-11-10 13:03:00,
2013-11-10 05:08:00,35.9,33.8,30.03,NNE,15,0.0,0.0,92,0.00,,,0.00,WeatherCatV1.23B16,2013-11-10 13:08:00,
2013-11-10 05:13:00,36.0,33.9,30.03,NNE,15,0.0,0.0,92,0.00,,,0.00,WeatherCatV1.23B16,2013-11-10 13:13:00,
2013-11-10 05:18:00,35.9,33.8,30.03,NNE,14,0.0,0.0,92,0.00,,,0.00,WeatherCatV1.23B16,2013-11-10 13:18:00,
2013-11-10 05:23:00,36.0,33.9,30.03,NNE,15,0.0,0.0,92,0.00,,,0.00,WeatherCatV1.23B16,2013-11-10 13:23:00,
2013-11-10 05:28:00,35.9,33.8,30.03,NNE,14,0.0,0.0,92,0.00,,,0.00,WeatherCatV1.23B16,2013-11-10 13:28:00,
2013-11-10 05:33:00,35.9,33.8,30.03,NNE,14,0.0,0.0,92,0.00,,,0.00,WeatherCatV1.23B16,2013-11-10 13:33:00,
2013-11-10 05:38:00,35.8,33.7,30.03,NNE,14,0.0,0.0,92,0.00,,,0.00,WeatherCatV1.23B16,2013-11-10 13:38:00,
2013-11-10 05:43:00,35.7,33.9,30.03,NNE,15,0.0,0.0,93,0.00,,,0.00,WeatherCatV1.23B16,2013-11-10 13:43:00,
2013-11-10 05:48:00,35.7,33.9,30.03,NNE,14,0.0,0.0,93,0.00,,,0.00,WeatherCatV1.23B16,2013-11-10 13:48:00,
2013-11-10 05:53:00,35.6,33.8,30.03,NNE,15,0.0,0.0,93,0.00,,,0.00,WeatherCatV1.23B16,2013-11-10 13:53:00,
2013-11-10 05:58:00,35.6,33.8,30.03,NNE,15,0.0,0.0,93,0.00,,,0.00,WeatherCatV1.23B16,2013-11-10 13:58:00,
2013-11-10 06:03:00,35.5,33.7,30.03,NNE,14,0.0,0.0,93,0.00,,,0.00,WeatherCatV1.23B16,2013-11-10 14:03:00,
2013-11-10 06:08:00,35.5,33.7,30.04,NNE,14,0.0,0.0,93,0.00,,,0.00,WeatherCatV1.23B16,2013-11-10 14:08:00,
2013-11-10 06:13:00,35.5,33.7,30.04,NNE,15,0.0,0.0,93,0.00,,,0.00,WeatherCatV1.23B16,2013-11-10 14:13:00,
2013-11-10 06:18:00,35.4,33.6,30.04,NNE,15,0.0,0.0,93,0.00,,,0.00,WeatherCatV1.23B16,2013-11-10 14:18:00,
2013-11-10 06:23:00,35.9,34.3,30.04,NNE,15,0.0,0.0,94,0.00,,,0.00,WeatherCatV1.23B16,2013-11-10 14:23:00,
2013-11-10 06:28:00,36.1,34.5,30.04,NNE,15,0.0,0.0,94,0.00,,,0.00,WeatherCatV1.23B16,2013-11-10 14:28:00,
2013-11-10 06:33:00,36.1,34.5,30.05,NNE,15,0.0,0.0,94,0.00,,,0.00,WeatherCatV1.23B16,2013-11-10 14:33:00,
2013-11-10 06:38:00,36.3,34.7,30.05,NNE,14,0.0,0.0,94,0.00,,,0.00,WeatherCatV1.23B16,2013-11-10 14:38:00,
2013-11-10 06:43:00,36.4,34.8,30.05,NNE,14,0.0,0.0,94,0.00,,,0.00,WeatherCatV1.23B16,2013-11-10 14:43:00,
2013-11-10 06:48:00,36.6,35.0,30.05,NNE,15,0.0,0.0,94,0.00,,,0.00,WeatherCatV1.23B16,2013-11-10 14:48:00,
2013-11-10 06:53:00,36.7,35.1,30.05,NNE,15,0.0,0.0,94,0.00,,,0.00,WeatherCatV1.23B16,2013-11-10 14:53:00,
2013-11-10 06:58:00,36.7,35.1,30.06,NNE,14,0.0,0.0,94,0.00,,,0.00,WeatherCatV1.23B16,2013-11-10 14:58:00,
2013-11-10 07:03:00,36.7,35.1,30.06,NNE,15,0.0,0.0,94,0.00,,,0.00,WeatherCatV1.23B16,2013-11-10 15:03:00,
2013-11-10 07:08:00,37.2,35.9,30.06,NNE,15,0.0,0.0,95,0.00,,,0.00,WeatherCatV1.23B16,2013-11-10 15:08:00,
2013-11-10 07:13:00,38.0,36.7,30.06,NNE,14,0.0,1.0,95,0.00,,,0.00,WeatherCatV1.23B16,2013-11-10 15:13:00,
2013-11-10 07:18:00,38.5,37.2,30.06,NNE,14,0.0,0.0,95,0.00,,,0.00,WeatherCatV1.23B16,2013-11-10 15:18:00,
2013-11-10 07:23:00,38.6,37.3,30.06,NNE,14,0.0,0.0,95,0.00,,,0.00,WeatherCatV1.23B16,2013-11-10 15:23:00,
2013-11-10 07:28:00,39.4,38.1,30.06,NNE,15,0.0,0.0,95,0.00,,,0.00,WeatherCatV1.23B16,2013-11-10 15:28:00,
2013-11-10 07:33:00,40.0,38.7,30.07,NNE,15,0.0,0.0,95,0.00,,,0.00,WeatherCatV1.23B16,2013-11-10 15:33:00,
2013-11-10 07:38:00,40.9,39.8,30.07,NNE,14,0.0,0.0,96,0.00,,,0.00,WeatherCatV1.23B16,2013-11-10 15:38:00,
2013-11-10 07:43:00,41.7,40.6,30.07,NNE,24,0.0,1.0,96,0.00,,,0.00,WeatherCatV1.23B16,2013-11-10 15:43:00,
2013-11-10 07:48:00,42.2,40.9,30.07,NNE,24,0.0,0.0,95,0.00,,,0.00,WeatherCatV1.23B16,2013-11-10 15:48:00,
2013-11-10 07:53:00,42.7,41.4,30.07,NNE,24,0.0,0.0,95,0.00,,,0.00,WeatherCatV1.23B16,2013-11-10 15:53:00,
2013-11-10 07:58:00,43.3,42.0,30.08,NNE,24,0.0,2.0,95,0.00,,,0.00,WeatherCatV1.23B16,2013-11-10 15:58:00,
2013-11-10 08:03:00,44.1,42.8,30.07,SE,146,0.0,1.0,95,0.00,,,0.00,WeatherCatV1.23B16,2013-11-10 16:03:00,
2013-11-10 08:08:00,44.9,43.3,30.08,SE,141,0.0,1.0,94,0.00,,,0.00,WeatherCatV1.23B16,2013-11-10 16:08:00,
2013-11-10 08:13:00,45.9,43.4,30.07,ESE,103,0.0,0.0,91,0.00,,,0.00,WeatherCatV1.23B16,2013-11-10 16:13:00,
2013-11-10 08:18:00,46.7,43.3,30.08,ESE,102,0.0,0.0,88,0.00,,,0.00,WeatherCatV1.23B16,2013-11-10 16:18:00,
2013-11-10 08:23:00,47.6,43.3,30.08,ESE,102,0.0,1.0,85,0.00,,,0.00,WeatherCatV1.23B16,2013-11-10 16:23:00,
2013-11-10 08:28:00,48.4,43.2,30.08,ESE,102,0.0,0.0,82,0.00,,,0.00,WeatherCatV1.23B16,2013-11-10 16:28:00,
2013-11-10 08:33:00,49.2,43.3,30.08,ESE,103,0.0,0.0,80,0.00,,,0.00,WeatherCatV1.23B16,2013-11-10 16:33:00,
2013-11-10 08:38:00,50.5,43.6,30.08,East,101,0.0,0.0,77,0.00,,,0.00,WeatherCatV1.23B16,2013-11-10 16:38:00,
2013-11-10 08:59:00,54.0,43.3,30.07,ESE,109,0.0,0.0,67,0.00,,,0.00,WeatherCatV1.23B16,2013-11-10 16:59:00,
2013-11-10 09:04:00,54.9,43.4,30.07,ESE,106,1.0,1.0,65,0.00,,,0.00,WeatherCatV1.23B16,2013-11-10 17:04:00,
2013-11-10 09:09:00,55.8,43.0,30.07,ESE,105,0.0,1.0,62,0.00,,,0.00,WeatherCatV1.23B16,2013-11-10 17:09:00,
2013-11-10 09:14:00,56.5,43.2,30.07,ESE,105,0.0,1.0,61,0.00,,,0.00,WeatherCatV1.23B16,2013-11-10 17:14:00,
2013-11-10 09:19:00,57.3,43.1,30.07,ESE,113,0.0,1.0,59,0.00,,,0.00,WeatherCatV1.23B16,2013-11-10 17:19:00,
2013-11-10 09:24:00,58.0,44.2,30.07,ESE,113,0.0,0.0,60,0.00,,,0.00,WeatherCatV1.23B16,2013-11-10 17:24:00,
2013-11-10 09:29:00,58.7,44.4,30.08,SE,140,0.0,0.0,59,0.00,,,0.00,WeatherCatV1.23B16,2013-11-10 17:29:00,
2013-11-10 09:34:00,59.4,44.2,30.08,SE,145,0.0,1.0,57,0.00,,,0.00,WeatherCatV1.23B16,2013-11-10 17:34:00,
2013-11-10 09:39:00,60.0,44.3,30.08,SE,146,0.0,1.0,56,0.00,,,0.00,WeatherCatV1.23B16,2013-11-10 17:39:00,
2013-11-10 09:44:00,60.7,44.4,30.08,SSE,148,0.0,0.0,55,0.00,,,0.00,WeatherCatV1.23B16,2013-11-10 17:44:00,
2013-11-10 09:49:00,61.4,44.6,30.08,SSE,148,0.0,1.0,54,0.00,,,0.00,WeatherCatV1.23B16,2013-11-10 17:49:00,
2013-11-10 09:54:00,62.0,45.2,30.08,SSE,161,0.0,1.0,54,0.00,,,0.00,WeatherCatV1.23B16,2013-11-10 17:54:00,
2013-11-10 09:59:00,62.6,45.2,30.08,SSE,160,0.0,1.0,53,0.00,,,0.00,WeatherCatV1.23B16,2013-11-10 17:59:00,
2013-11-10 10:04:00,63.3,45.4,30.08,SSE,161,0.0,1.0,52,0.00,,,0.00,WeatherCatV1.23B16,2013-11-10 18:04:00,
2013-11-10 10:09:00,64.0,46.0,30.08,SSE,161,1.0,1.0,52,0.00,,,0.00,WeatherCatV1.23B16,2013-11-10 18:09:00,
2013-11-10 10:14:00,64.7,45.6,30.07,SSE,161,0.0,0.0,50,0.00,,,0.00,WeatherCatV1.23B16,2013-11-10 18:14:00,
2013-11-10 10:19:00,65.4,45.7,30.07,SSE,161,1.0,1.0,49,0.00,,,0.00,WeatherCatV1.23B16,2013-11-10 18:19:00,
2013-11-10 10:24:00,65.8,46.1,30.07,SSE,167,0.0,1.0,49,0.00,,,0.00,WeatherCatV1.23B16,2013-11-10 18:24:00,
2013-11-10 10:29:00,66.2,46.5,30.07,SSE,168,0.0,0.0,49,0.00,,,0.00,WeatherCatV1.23B16,2013-11-10 18:29:00,
2013-11-10 10:34:00,66.5,46.7,30.07,South,171,0.0,1.0,49,0.00,,,0.00,WeatherCatV1.23B16,2013-11-10 18:34:00,
2013-11-10 10:39:00,66.7,46.9,30.07,South,175,0.0,2.0,49,0.00,,,0.00,WeatherCatV1.23B16,2013-11-10 18:39:00,
2013-11-10 10:44:00,66.9,47.1,30.07,South,176,0.0,1.0,49,0.00,,,0.00,WeatherCatV1.23B16,2013-11-10 18:44:00,
2013-11-10 10:49:00,67.4,47.0,30.07,South,180,0.0,2.0,48,0.00,,,0.00,WeatherCatV1.23B16,2013-11-10 18:49:00,
2013-11-10 10:54:00,67.9,47.5,30.06,South,180,0.0,0.0,48,0.00,,,0.00,WeatherCatV1.23B16,2013-11-10 18:54:00,
2013-11-10 10:59:00,68.3,46.7,30.06,South,181,0.0,0.0,46,0.00,,,0.00,WeatherCatV1.23B16,2013-11-10 18:59:00,
2013-11-10 11:04:00,68.6,47.5,30.06,South,182,0.0,2.0,47,0.00,,,0.00,WeatherCatV1.23B16,2013-11-10 19:04:00,
2013-11-10 11:09:00,69.0,47.3,30.06,South,182,0.0,0.0,46,0.00,,,0.00,WeatherCatV1.23B16,2013-11-10 19:09:00,
2013-11-10 11:14:00,69.2,46.3,30.06,South,182,0.0,0.0,44,0.00,,,0.00,WeatherCatV1.23B16,2013-11-10 19:14:00,
2013-11-10 11:19:00,69.5,46.6,30.06,South,182,0.0,0.0,44,0.00,,,0.00,WeatherCatV1.23B16,2013-11-10 19:19:00,
2013-11-10 11:24:00,69.9,47.0,30.06,South,182,0.0,0.0,44,0.00,,,0.00,WeatherCatV1.23B16,2013-11-10 19:24:00,
2013-11-10 11:29:00,70.4,46.8,30.06,South,182,0.0,0.0,43,0.00,,,0.00,WeatherCatV1.23B16,2013-11-10 19:29:00,
2013-11-10 11:34:00,70.8,45.9,30.05,South,182,0.0,0.0,41,0.00,,,0.00,WeatherCatV1.23B16,2013-11-10 19:34:00,
2013-11-10 11:39:00,71.2,46.9,30.05,South,182,0.0,1.0,42,0.00,,,0.00,WeatherCatV1.23B16,2013-11-10 19:39:00,
2013-11-10 11:44:00,71.4,45.8,30.05,South,186,0.0,0.0,40,0.00,,,0.00,WeatherCatV1.23B16,2013-11-10 19:44:00,
2013-11-10 11:49:00,71.6,46.0,30.04,South,186,0.0,1.0,40,0.00,,,0.00,WeatherCatV1.23B16,2013-11-10 19:49:00,
2013-11-10 11:54:00,71.9,46.2,30.04,South,186,0.0,0.0,40,0.00,,,0.00,WeatherCatV1.23B16,2013-11-10 19:54:00,
2013-11-10 11:59:00,72.3,46.6,30.04,South,186,0.0,1.0,40,0.00,,,0.00,WeatherCatV1.23B16,2013-11-10 19:59:00,
2013-11-10 12:04:00,72.7,46.3,30.03,South,186,0.0,0.0,39,0.00,,,0.00,WeatherCatV1.23B16,2013-11-10 20:04:00,
2013-11-10 12:09:00,73.2,46.1,30.03,South,182,0.0,0.0,38,0.00,,,0.00,WeatherCatV1.23B16,2013-11-10 20:09:00,
2013-11-10 12:14:00,73.9,46.7,30.04,South,182,0.0,0.0,38,0.00,,,0.00,WeatherCatV1.23B16,2013-11-10 20:14:00,
2013-11-10 12:19:00,74.4,45.7,30.03,South,182,0.0,1.0,36,0.00,,,0.00,WeatherCatV1.23B16,2013-11-10 20:19:00,
2013-11-10 12:24:00,74.8,46.8,30.03,South,182,0.0,0.0,37,0.00,,,0.00,WeatherCatV1.23B16,2013-11-10 20:24:00,
2013-11-10 12:29:00,75.1,45.6,30.02,South,182,0.0,1.0,35,0.00,,,0.00,WeatherCatV1.23B16,2013-11-10 20:29:00,
2013-11-10 12:34:00,75.3,45.7,30.02,South,182,0.0,1.0,35,0.00,,,0.00,WeatherCatV1.23B16,2013-11-10 20:34:00,
2013-11-10 12:39:00,75.6,46.8,30.02,South,182,0.0,0.0,36,0.00,,,0.00,WeatherCatV1.23B16,2013-11-10 20:39:00,
2013-11-10 12:44:00,75.8,45.4,30.02,SSE,162,0.0,1.0,34,0.00,,,0.00,WeatherCatV1.23B16,2013-11-10 20:44:00,
2013-11-10 12:49:00,76.2,46.5,30.01,SSE,162,0.0,0.0,35,0.00,,,0.00,WeatherCatV1.23B16,2013-11-10 20:49:00,
2013-11-10 12:54:00,76.7,46.2,30.01,SSE,162,0.0,0.0,34,0.00,,,0.00,WeatherCatV1.23B16,2013-11-10 20:54:00,
2013-11-10 12:59:00,77.3,45.9,30.01,SSE,162,0.0,0.0,33,0.00,,,0.00,WeatherCatV1.23B16,2013-11-10 20:59:00,
2013-11-10 13:04:00,77.5,46.9,30.01,SSE,164,0.0,0.0,34,0.00,,,0.00,WeatherCatV1.23B16,2013-11-10 21:04:00,
2013-11-10 13:09:00,77.5,45.3,30.01,SSE,164,0.0,0.0,32,0.00,,,0.00,WeatherCatV1.23B16,2013-11-10 21:09:00,
2013-11-10 13:14:00,77.3,46.7,30.01,SSE,164,0.0,1.0,34,0.00,,,0.00,WeatherCatV1.23B16,2013-11-10 21:14:00,
2013-11-10 13:19:00,77.7,47.1,30.00,SSE,164,0.0,1.0,34,0.00,,,0.00,WeatherCatV1.23B16,2013-11-10 21:19:00,
2013-11-10 13:24:00,78.3,46.0,30.00,SSE,164,0.0,1.0,32,0.00,,,0.00,WeatherCatV1.23B16,2013-11-10 21:24:00,
2013-11-10 13:29:00,78.0,44.9,30.00,SSE,164,0.0,0.0,31,0.00,,,0.00,WeatherCatV1.23B16,2013-11-10 21:29:00,
2013-11-10 13:34:00,78.1,46.6,30.00,SSE,163,0.0,1.0,33,0.00,,,0.00,WeatherCatV1.23B16,2013-11-10 21:34:00,
2013-11-10 13:39:00,78.0,47.3,30.00,SE,142,0.0,0.0,34,0.00,,,0.00,WeatherCatV1.23B16,2013-11-10 21:39:00,
2013-11-10 13:44:00,77.7,46.3,30.00,SE,126,0.0,3.0,33,0.00,,,0.00,WeatherCatV1.23B16,2013-11-10 21:44:00,
2013-11-10 13:49:00,77.4,46.8,30.00,ESE,123,0.0,0.0,34,0.00,,,0.00,WeatherCatV1.23B16,2013-11-10 21:49:00,
2013-11-10 13:54:00,77.3,45.9,30.00,ESE,119,3.0,3.0,33,0.00,,,0.00,WeatherCatV1.23B16,2013-11-10 21:54:00,
2013-11-10 13:59:00,77.0,45.7,29.99,ESE,117,0.0,1.0,33,0.00,,,0.00,WeatherCatV1.23B16,2013-11-10 21:59:00,
2013-11-10 14:04:00,77.2,45.0,29.99,ESE,115,0.0,3.0,32,0.00,,,0.00,WeatherCatV1.23B16,2013-11-10 22:04:00,
2013-11-10 14:09:00,77.3,44.3,29.99,North,355,0.0,0.0,31,0.00,,,0.00,WeatherCatV1.23B16,2013-11-10 22:09:00,
2013-11-10 14:14:00,77.5,44.5,29.99,North,11,0.0,2.0,31,0.00,,,0.00,WeatherCatV1.23B16,2013-11-10 22:14:00,
2013-11-10 14:19:00,77.5,44.5,29.99,NNE,15,0.0,0.0,31,0.00,,,0.00,WeatherCatV1.23B16,2013-11-10 22:19:00,
2013-11-10 14:24:00,77.5,42.7,29.99,NE,34,3.0,3.0,29,0.00,,,0.00,WeatherCatV1.23B16,2013-11-10 22:24:00,
2013-11-10 14:29:00,77.6,43.7,29.99,North,355,0.0,3.0,30,0.00,,,0.00,WeatherCatV1.23B16,2013-11-10 22:29:00,
2013-11-10 14:34:00,77.6,42.8,29.99,North,355,0.0,0.0,29,0.00,,,0.00,WeatherCatV1.23B16,2013-11-10 22:34:00,
2013-11-10 14:39:00,77.8,43.0,29.99,North,355,0.0,0.0,29,0.00,,,0.00,WeatherCatV1.23B16,2013-11-10 22:39:00,
2013-11-10 14:44:00,77.8,43.0,29.99,NW,315,0.0,0.0,29,0.00,,,0.00,WeatherCatV1.23B16,2013-11-10 22:44:00,
2013-11-10 14:49:00,77.9,43.1,29.98,North,9,0.0,1.0,29,0.00,,,0.00,WeatherCatV1.23B16,2013-11-10 22:49:00,
2013-11-10 14:54:00,77.9,43.1,29.98,North,5,0.0,0.0,29,0.00,,,0.00,WeatherCatV1.23B16,2013-11-10 22:54:00,
2013-11-10 14:59:00,78.0,43.2,29.98,NNE,13,0.0,1.0,29,0.00,,,0.00,WeatherCatV1.23B16,2013-11-10 22:59:00,
2013-11-10 15:04:00,78.1,42.3,29.98,North,5,0.0,0.0,28,0.00,,,0.00,WeatherCatV1.23B16,2013-11-10 23:04:00,
2013-11-10 15:09:00,78.0,41.3,29.98,North,0,0.0,3.0,27,0.00,,,0.00,WeatherCatV1.23B16,2013-11-10 23:09:00,
2013-11-10 15:14:00,78.1,44.1,29.98,North,0,0.0,0.0,30,0.00,,,0.00,WeatherCatV1.23B16,2013-11-10 23:14:00,
2013-11-10 15:19:00,78.1,42.3,29.98,North,5,0.0,0.0,28,0.00,,,0.00,WeatherCatV1.23B16,2013-11-10 23:19:00,
2013-11-10 15:24:00,78.1,43.2,29.98,North,0,0.0,0.0,29,0.00,,,0.00,WeatherCatV1.23B16,2013-11-10 23:24:00,
2013-11-10 15:29:00,78.3,42.5,29.98,North,5,0.0,1.0,28,0.00,,,0.00,WeatherCatV1.23B16,2013-11-10 23:29:00,
2013-11-10 15:34:00,78.3,42.5,29.98,North,5,0.0,0.0,28,0.00,,,0.00,WeatherCatV1.23B16,2013-11-10 23:34:00,
2013-11-10 15:39:00,78.3,42.5,29.98,North,5,0.0,0.0,28,0.00,,,0.00,WeatherCatV1.23B16,2013-11-10 23:39:00,
2013-11-10 15:44:00,78.4,42.6,29.98,North,5,0.0,0.0,28,0.00,,,0.00,WeatherCatV1.23B16,2013-11-10 23:44:00,
2013-11-10 15:49:00,78.4,42.6,29.98,North,5,0.0,0.0,28,0.00,,,0.00,WeatherCatV1.23B16,2013-11-10 23:49:00,
2013-11-10 15:54:00,78.4,43.5,29.99,North,5,0.0,0.0,29,0.00,,,0.00,WeatherCatV1.23B16,2013-11-10 23:54:00,
2013-11-10 15:59:00,78.4,45.2,29.98,North,0,0.0,0.0,31,0.00,,,0.00,WeatherCatV1.23B16,2013-11-10 23:59:00,
2013-11-10 16:04:00,77.9,46.5,29.98,North,0,0.0,0.0,33,0.00,,,0.00,WeatherCatV1.23B16,2013-11-11 00:04:00,
2013-11-10 16:09:00,77.5,48.4,29.98,North,5,0.0,0.0,36,0.00,,,0.00,WeatherCatV1.23B16,2013-11-11 00:09:00,
2013-11-10 16:14:00,77.1,48.8,29.98,North,5,0.0,0.0,37,0.00,,,0.00,WeatherCatV1.23B16,2013-11-11 00:14:00,
2013-11-10 16:19:00,76.7,49.2,29.98,North,0,0.0,0.0,38,0.00,,,0.00,WeatherCatV1.23B16,2013-11-11 00:19:00,
2013-11-10 16:24:00,76.1,48.6,29.99,North,0,0.0,0.0,38,0.00,,,0.00,WeatherCatV1.23B16,2013-11-11 00:24:00,
2013-11-10 16:29:00,74.9,49.6,29.99,North,5,0.0,0.0,41,0.00,,,0.00,WeatherCatV1.23B16,2013-11-11 00:29:00,
2013-11-10 16:34:00,73.5,50.2,29.99,North,5,0.0,0.0,44,0.00,,,0.00,WeatherCatV1.23B16,2013-11-11 00:34:00,
2013-11-10 16:39:00,72.1,48.4,29.99,North,0,0.0,0.0,43,0.00,,,0.00,WeatherCatV1.23B16,2013-11-11 00:39:00,
2013-11-10 16:44:00,70.8,47.2,29.99,North,5,0.0,0.0,43,0.00,,,0.00,WeatherCatV1.23B16,2013-11-11 00:44:00,
2013-11-10 16:49:00,69.7,46.8,29.99,North,5,0.0,0.0,44,0.00,,,0.00,WeatherCatV1.23B16,2013-11-11 00:49:00,
2013-11-10 16:54:00,68.6,47.0,29.99,North,5,0.0,0.0,46,0.00,,,0.00,WeatherCatV1.23B16,2013-11-11 00:54:00,
2013-11-10 16:59:00,67.2,47.4,29.99,North,0,0.0,0.0,49,0.00,,,0.00,WeatherCatV1.23B16,2013-11-11 00:59:00,
2013-11-10 17:04:00,66.4,47.2,29.99,North,5,0.0,0.0,50,0.00,,,0.00,WeatherCatV1.23B16,2013-11-11 01:04:00,
2013-11-10 17:09:00,65.6,47.0,29.99,North,5,0.0,0.0,51,0.00,,,0.00,WeatherCatV1.23B16,2013-11-11 01:09:00,
2013-11-10 17:14:00,65.2,46.6,29.99,North,0,0.0,0.0,51,0.00,,,0.00,WeatherCatV1.23B16,2013-11-11 01:14:00,
2013-11-10 17:19:00,64.3,46.3,29.99,North,5,0.0,0.0,52,0.00,,,0.00,WeatherCatV1.23B16,2013-11-11 01:19:00,
2013-11-10 17:24:00,63.3,46.8,29.99,North,5,0.0,0.0,55,0.00,,,0.00,WeatherCatV1.23B16,2013-11-11 01:24:00,
2013-11-10 17:29:00,62.1,46.2,29.99,North,5,0.0,0.0,56,0.00,,,0.00,WeatherCatV1.23B16,2013-11-11 01:29:00,
2013-11-10 17:34:00,61.6,46.2,29.99,North,5,0.0,0.0,57,0.00,,,0.00,WeatherCatV1.23B16,2013-11-11 01:34:00,
2013-11-10 17:39:00,60.8,45.9,29.99,North,0,0.0,0.0,58,0.00,,,0.00,WeatherCatV1.23B16,2013-11-11 01:39:00,
2013-11-10 17:44:00,59.9,45.5,29.99,North,5,0.0,0.0,59,0.00,,,0.00,WeatherCatV1.23B16,2013-11-11 01:44:00,
2013-11-10 17:49:00,59.4,44.6,30.00,North,0,0.0,0.0,58,0.00,,,0.00,WeatherCatV1.23B16,2013-11-11 01:49:00,
2013-11-10 17:54:00,58.9,45.0,30.00,North,5,0.0,0.0,60,0.00,,,0.00,WeatherCatV1.23B16,2013-11-11 01:54:00,
2013-11-10 17:59:00,58.4,45.0,30.00,North,0,0.0,0.0,61,0.00,,,0.00,WeatherCatV1.23B16,2013-11-11 01:59:00,
2013-11-10 18:04:00,57.7,44.3,30.00,North,0,0.0,0.0,61,0.00,,,0.00,WeatherCatV1.23B16,2013-11-11 02:04:00,
2013-11-10 18:09:00,57.3,44.0,30.00,North,0,0.0,0.0,61,0.00,,,0.00,WeatherCatV1.23B16,2013-11-11 02:09:00,
2013-11-10 18:14:00,56.8,43.9,30.00,North,0,0.0,0.0,62,0.00,,,0.00,WeatherCatV1.23B16,2013-11-11 02:14:00,
2013-11-10 18:19:00,56.4,43.1,30.00,North,0,0.0,0.0,61,0.00,,,0.00,WeatherCatV1.23B16,2013-11-11 02:19:00,
2013-11-10 18:24:00,55.9,42.7,30.01,North,5,0.0,0.0,61,0.00,,,0.00,WeatherCatV1.23B16,2013-11-11 02:24:00,
2013-11-10 18:29:00,55.4,43.0,30.01,North,5,0.0,0.0,63,0.00,,,0.00,WeatherCatV1.23B16,2013-11-11 02:29:00,
2013-11-10 18:34:00,55.1,42.7,30.00,North,5,0.0,0.0,63,0.00,,,0.00,WeatherCatV1.23B16,2013-11-11 02:34:00,
2013-11-10 18:39:00,54.9,42.5,30.00,North,0,0.0,0.0,63,0.00,,,0.00,WeatherCatV1.23B16,2013-11-11 02:39:00,
2013-11-10 18:44:00,54.6,42.7,30.00,North,5,0.0,0.0,64,0.00,,,0.00,WeatherCatV1.23B16,2013-11-11 02:44:00,
2013-11-10 18:49:00,54.4,42.9,30.01,North,5,0.0,0.0,65,0.00,,,0.00,WeatherCatV1.23B16,2013-11-11 02:49:00,
2013-11-10 18:54:00,54.2,42.7,30.01,North,0,0.0,0.0,65,0.00,,,0.00,WeatherCatV1.23B16,2013-11-11 02:54:00,
2013-11-10 18:59:00,54.1,43.0,30.01,North,5,0.0,0.0,66,0.00,,,0.00,WeatherCatV1.23B16,2013-11-11 02:59:00,
2013-11-10 19:04:00,54.0,43.3,30.01,North,5,0.0,0.0,67,0.00,,,0.00,WeatherCatV1.23B16,2013-11-11 03:04:00,
2013-11-10 19:09:00,53.9,43.6,30.01,North,5,0.0,0.0,68,0.00,,,0.00,WeatherCatV1.23B16,2013-11-11 03:09:00,
2013-11-10 19:14:00,53.9,44.3,30.01,North,5,0.0,0.0,70,0.00,,,0.00,WeatherCatV1.23B16,2013-11-11 03:14:00,
2013-11-10 19:19:00,53.9,44.3,30.01,North,5,0.0,0.0,70,0.00,,,0.00,WeatherCatV1.23B16,2013-11-11 03:19:00,
2013-11-10 19:24:00,54.1,44.5,30.01,North,5,0.0,0.0,70,0.00,,,0.00,WeatherCatV1.23B16,2013-11-11 03:24:00,
2013-11-10 19:29:00,54.3,44.7,30.01,North,5,0.0,0.0,70,0.00,,,0.00,WeatherCatV1.23B16,2013-11-11 03:29:00,
2013-11-10 19:34:00,54.4,44.4,30.02,North,0,0.0,0.0,69,0.00,,,0.00,WeatherCatV1.23B16,2013-11-11 03:34:00,
2013-11-10 19:39:00,54.4,44.4,30.02,North,5,0.0,0.0,69,0.00,,,0.00,WeatherCatV1.23B16,2013-11-11 03:39:00,
2013-11-10 19:44:00,54.5,44.5,30.02,North,5,0.0,0.0,69,0.00,,,0.00,WeatherCatV1.23B16,2013-11-11 03:44:00,
2013-11-10 19:49:00,54.6,44.6,30.02,North,5,0.0,1.0,69,0.00,,,0.00,WeatherCatV1.23B16,2013-11-11 03:49:00,
2013-11-10 19:54:00,54.8,44.8,30.02,North,5,0.0,0.0,69,0.00,,,0.00,WeatherCatV1.23B16,2013-11-11 03:54:00,
2013-11-10 19:59:00,54.8,44.4,30.03,North,0,0.0,0.0,68,0.00,,,0.00,WeatherCatV1.23B16,2013-11-11 03:59:00,
2013-11-10 20:04:00,54.8,44.0,30.03,North,0,0.0,0.0,67,0.00,,,0.00,WeatherCatV1.23B16,2013-11-11 04:04:00,
2013-11-10 20:09:00,54.6,43.9,30.03,North,0,0.0,0.0,67,0.00,,,0.00,WeatherCatV1.23B16,2013-11-11 04:09:00,
2013-11-10 20:14:00,54.3,43.2,30.03,North,5,0.0,0.0,66,0.00,,,0.00,WeatherCatV1.23B16,2013-11-11 04:14:00,
2013-11-10 20:19:00,54.0,42.9,30.03,North,5,0.0,0.0,66,0.00,,,0.00,WeatherCatV1.23B16,2013-11-11 04:19:00,
2013-11-10 20:24:00,53.6,42.9,30.03,North,5,0.0,0.0,67,0.00,,,0.00,WeatherCatV1.23B16,2013-11-11 04:24:00,
2013-11-10 20:29:00,53.3,42.6,30.03,North,5,0.0,0.0,67,0.00,,,0.00,WeatherCatV1.23B16,2013-11-11 04:29:00,
2013-11-10 20:34:00,52.9,42.6,30.03,North,5,0.0,0.0,68,0.00,,,0.00,WeatherCatV1.23B16,2013-11-11 04:34:00,
2013-11-10 20:39:00,52.5,42.6,30.03,North,0,0.0,0.0,69,0.00,,,0.00,WeatherCatV1.23B16,2013-11-11 04:39:00,
2013-11-10 20:44:00,52.0,42.2,30.03,North,5,0.0,0.0,69,0.00,,,0.00,WeatherCatV1.23B16,2013-11-11 04:44:00,
2013-11-10 20:49:00,51.7,42.6,30.03,North,0,0.0,0.0,71,0.00,,,0.00,WeatherCatV1.23B16,2013-11-11 04:49:00,
2013-11-10 20:54:00,51.3,42.2,30.03,North,5,0.0,0.0,71,0.00,,,0.00,WeatherCatV1.23B16,2013-11-11 04:54:00,
2013-11-10 20:59:00,51.0,42.3,30.04,North,5,0.0,0.0,72,0.00,,,0.00,WeatherCatV1.23B16,2013-11-11 04:59:00,
2013-11-10 21:01:00,51.0,42.7,30.04,North,5,0.0,0.0,73,0.00,,,0.00,WeatherCatV1.23B16,2013-11-11 05:01:00,
2013-11-10 21:02:00,50.9,42.9,30.04,North,5,0.0,0.0,74,0.00,,,0.00,WeatherCatV1.23B16,2013-11-11 05:02:00,
2013-11-10 21:07:00,50.6,43.3,30.04,North,0,0.0,0.0,76,0.00,,,0.00,WeatherCatV1.23B16,2013-11-11 05:07:00,
2013-11-10 21:12:00,50.4,42.8,30.04,North,5,0.0,0.0,75,0.00,,,0.00,WeatherCatV1.23B16,2013-11-11 05:12:00,
2013-11-10 21:17:00,50.1,42.5,30.04,North,5,0.0,0.0,75,0.00,,,0.00,WeatherCatV1.23B16,2013-11-11 05:17:00,
2013-11-10 21:22:00,49.7,41.8,30.04,North,0,0.0,0.0,74,0.00,,,0.00,WeatherCatV1.23B16,2013-11-11 05:22:00,
2013-11-10 21:27:00,49.5,42.2,30.04,North,5,0.0,0.0,76,0.00,,,0.00,WeatherCatV1.23B16,2013-11-11 05:27:00,
2013-11-10 21:32:00,49.2,42.0,30.04,North,5,0.0,0.0,76,0.00,,,0.00,WeatherCatV1.23B16,2013-11-11 05:32:00,
2013-11-10 21:37:00,49.0,42.1,30.04,North,0,0.0,0.0,77,0.00,,,0.00,WeatherCatV1.23B16,2013-11-11 05:37:00,
2013-11-10 21:42:00,48.8,41.9,30.04,North,0,0.0,0.0,77,0.00,,,0.00,WeatherCatV1.23B16,2013-11-11 05:42:00,
2013-11-10 21:47:00,48.6,41.7,30.05,North,5,0.0,0.0,77,0.00,,,0.00,WeatherCatV1.23B16,2013-11-11 05:47:00,
2013-11-10 21:52:00,48.4,41.5,30.05,North,5,0.0,0.0,77,0.00,,,0.00,WeatherCatV1.23B16,2013-11-11 05:52:00,
2013-11-10 21:57:00,48.2,42.0,30.05,North,0,0.0,0.0,79,0.00,,,0.00,WeatherCatV1.23B16,2013-11-11 05:57:00,
2013-11-10 22:02:00,48.1,41.9,30.05,North,0,0.0,0.0,79,0.00,,,0.00,WeatherCatV1.23B16,2013-11-11 06:02:00,
2013-11-10 22:07:00,47.8,41.6,30.05,North,5,0.0,0.0,79,0.00,,,0.00,WeatherCatV1.23B16,2013-11-11 06:07:00,
2013-11-10 22:12:00,47.6,41.4,30.05,North,0,0.0,0.0,79,0.00,,,0.00,WeatherCatV1.23B16,2013-11-11 06:12:00,
2013-11-10 22:17:00,47.4,41.2,30.05,North,5,0.0,0.0,79,0.00,,,0.00,WeatherCatV1.23B16,2013-11-11 06:17:00,
2013-11-10 22:22:00,47.2,41.3,30.05,North,5,0.0,0.0,80,0.00,,,0.00,WeatherCatV1.23B16,2013-11-11 06:22:00,
2013-11-10 22:27:00,47.0,41.2,30.05,North,5,0.0,0.0,80,0.00,,,0.00,WeatherCatV1.23B16,2013-11-11 06:27:00,
2013-11-10 22:32:00,46.8,41.0,30.05,North,5,0.0,0.0,80,0.00,,,0.00,WeatherCatV1.23B16,2013-11-11 06:32:00,
2013-11-10 22:37:00,46.5,40.7,30.05,North,0,0.0,0.0,80,0.00,,,0.00,WeatherCatV1.23B16,2013-11-11 06:37:00,
2013-11-10 22:42:00,46.4,41.2,30.05,North,5,0.0,0.0,82,0.00,,,0.00,WeatherCatV1.23B16,2013-11-11 06:42:00,
2013-11-10 22:47:00,46.2,41.3,30.05,North,0,0.0,0.0,83,0.00,,,0.00,WeatherCatV1.23B16,2013-11-11 06:47:00,
2013-11-10 22:52:00,46.1,41.5,30.05,North,5,0.0,0.0,84,0.00,,,0.00,WeatherCatV1.23B16,2013-11-11 06:52:00,
2013-11-10 22:57:00,46.0,41.8,30.05,North,5,0.0,0.0,85,0.00,,,0.00,WeatherCatV1.23B16,2013-11-11 06:57:00,
2013-11-10 23:02:00,45.9,41.7,30.05,North,0,0.0,0.0,85,0.00,,,0.00,WeatherCatV1.23B16,2013-11-11 07:02:00,
2013-11-10 23:07:00,45.8,41.5,30.06,North,5,0.0,0.0,85,0.00,,,0.00,WeatherCatV1.23B16,2013-11-11 07:07:00,
2013-11-10 23:12:00,45.6,41.3,30.06,North,5,0.0,0.0,85,0.00,,,0.00,WeatherCatV1.23B16,2013-11-11 07:12:00,
2013-11-10 23:17:00,45.5,42.5,30.05,North,0,0.0,0.0,89,0.00,,,0.00,WeatherCatV1.23B16,2013-11-11 07:17:00,
2013-11-10 23:22:00,45.4,41.5,30.06,North,5,0.0,0.0,86,0.00,,,0.00,WeatherCatV1.23B16,2013-11-11 07:22:00,
2013-11-10 23:27:00,45.2,41.3,30.05,North,5,0.0,0.0,86,0.00,,,0.00,WeatherCatV1.23B16,2013-11-11 07:27:00,
2013-11-10 23:32:00,45.1,41.2,30.06,North,5,0.0,0.0,86,0.00,,,0.00,WeatherCatV1.23B16,2013-11-11 07:32:00,
2013-11-10 23:37:00,45.0,41.1,30.06,North,5,0.0,0.0,86,0.00,,,0.00,WeatherCatV1.23B16,2013-11-11 07:37:00,
2013-11-10 23:42:00,44.9,41.0,30.05,North,5,0.0,0.0,86,0.00,,,0.00,WeatherCatV1.23B16,2013-11-11 07:42:00,
2013-11-10 23:47:00,44.9,41.3,30.06,North,5,0.0,0.0,87,0.00,,,0.00,WeatherCatV1.23B16,2013-11-11 07:47:00,
2013-11-10 23:52:00,44.9,41.3,30.06,North,0,0.0,0.0,87,0.00,,,0.00,WeatherCatV1.23B16,2013-11-11 07:52:00,
2013-11-10 23:57:00,44.9,41.6,30.06,North,5,0.0,0.0,88,0.00,,,0.00,WeatherCatV1.23B16,2013-11-11 07:57:00,